Time;durP1;ratioP1;P1;durP2;ratioP2;P2;SDS_P1;SDS_P2;PMS_P1;PMS_P2;Temp;Humidity;BMP_temperature;BMP_pressure;BME280_temperature;BME280_humidity;BME280_pressure;Samples;Min_cycle;Max_cycle;Signal;HPM_P1;HPM_P2
2023/01/20 00:01:47;;;;;;;22.90;9.10;;;;;;;7.61;84.77;100182.67;107432;1246;72088;-70
2023/01/20 00:04:18;;;;;;;19.70;8.70;;;;;;;7.68;85.22;100183.44;107248;1245;61574;-70
2023/01/20 00:06:47;;;;;;;19.40;7.70;;;;;;;7.73;84.20;100177.40;107299;1256;74259;-70
2023/01/20 00:09:17;;;;;;;20.70;7.00;;;;;;;7.77;83.85;100178.31;107158;1245;58996;-70
2023/01/20 00:11:46;;;;;;;17.50;6.60;;;;;;;7.82;83.69;100182.65;107303;1245;58952;-70
2023/01/20 00:14:15;;;;;;;18.70;7.00;;;;;;;7.88;83.06;100189.02;107301;1244;63244;-70
2023/01/20 00:16:44;;;;;;;14.60;5.50;;;;;;;7.95;83.81;100195.27;107320;1245;60820;-70
2023/01/20 00:19:14;;;;;;;13.80;5.00;;;;;;;8.00;82.64;100196.69;107220;1245;59764;-69
2023/01/20 00:21:43;;;;;;;17.00;5.80;;;;;;;8.00;81.81;100199.10;107136;1244;73777;-69
2023/01/20 00:24:11;;;;;;;18.60;6.30;;;;;;;7.97;81.76;100205.23;107139;1245;61983;-69
2023/01/20 00:26:40;;;;;;;16.90;6.40;;;;;;;7.96;81.93;100209.60;107271;1256;62206;-70
2023/01/20 00:29:09;;;;;;;15.20;6.00;;;;;;;7.96;82.15;100214.98;107170;1245;65249;-70
2023/01/20 00:31:39;;;;;;;12.30;5.50;;;;;;;7.93;82.20;100221.94;107173;1245;72185;-70
2023/01/20 00:34:10;;;;;;;14.80;6.80;;;;;;;7.90;84.08;100225.73;107312;1244;71106;-70
2023/01/20 00:36:39;;;;;;;15.30;5.90;;;;;;;7.88;83.25;100225.74;107182;1256;73728;-70
2023/01/20 00:39:08;;;;;;;14.50;5.20;;;;;;;7.83;82.67;100232.21;107222;1245;60746;-70
2023/01/20 00:41:37;;;;;;;16.30;5.10;;;;;;;7.74;82.74;100236.59;107209;1253;57552;-69
2023/01/20 00:44:06;;;;;;;8.80;4.60;;;;;;;7.67;82.86;100238.63;107284;1245;62452;-71
2023/01/20 00:46:36;;;;;;;13.90;4.70;;;;;;;7.61;83.12;100232.83;107378;1256;62986;-70
2023/01/20 00:49:05;;;;;;;14.80;5.30;;;;;;;7.56;83.18;100231.74;107382;1248;59207;-68
2023/01/20 00:51:34;;;;;;;15.90;5.20;;;;;;;7.54;83.77;100233.80;107292;1245;62637;-69
2023/01/20 00:54:03;;;;;;;13.60;4.90;;;;;;;7.51;83.75;100229.35;107305;1245;58876;-69
2023/01/20 00:56:32;;;;;;;17.90;5.50;;;;;;;7.48;84.15;100222.56;107322;1245;58729;-70
2023/01/20 00:59:01;;;;;;;15.50;6.00;;;;;;;7.48;85.38;100220.66;107223;1255;62810;-68
2023/01/20 01:01:30;;;;;;;20.40;5.30;;;;;;;7.50;85.48;100219.67;107386;1255;61535;-70
2023/01/20 01:04:00;;;;;;;18.60;6.00;;;;;;;7.53;85.94;100220.34;107335;1255;69894;-71
2023/01/20 01:06:28;;;;;;;15.70;5.80;;;;;;;7.52;86.75;100214.18;107174;1244;74208;-70
2023/01/20 01:08:57;;;;;;;18.60;5.60;;;;;;;7.52;86.48;100215.18;107349;1252;62875;-68
2023/01/20 01:11:26;;;;;;;16.40;5.40;;;;;;;7.53;86.20;100211.49;107325;1255;61479;-69
2023/01/20 01:13:56;;;;;;;15.10;5.00;;;;;;;7.55;87.61;100209.63;107286;1245;65165;-70
2023/01/20 01:16:25;;;;;;;16.30;4.90;;;;;;;7.59;89.23;100209.34;107239;1245;61938;-70
2023/01/20 01:18:54;;;;;;;14.90;5.00;;;;;;;7.61;89.21;100207.48;107411;1244;59962;-72
2023/01/20 01:21:23;;;;;;;14.10;5.20;;;;;;;7.63;88.47;100207.53;107170;1251;63264;-72
2023/01/20 01:23:52;;;;;;;14.50;4.80;;;;;;;7.66;89.19;100208.92;107305;1245;59074;-71
2023/01/20 01:26:21;;;;;;;18.10;5.00;;;;;;;7.66;89.30;100201.59;107241;1245;58575;-73
2023/01/20 01:28:51;;;;;;;17.40;5.00;;;;;;;7.66;90.37;100202.09;107343;1255;72579;-71
2023/01/20 01:31:20;;;;;;;17.90;4.90;;;;;;;7.66;89.85;100202.83;107361;1246;72623;-69
2023/01/20 01:33:50;;;;;;;14.10;4.50;;;;;;;7.66;91.00;100207.16;107241;1243;70750;-70
2023/01/20 01:36:19;;;;;;;19.40;4.70;;;;;;;7.66;89.07;100207.52;107390;1245;74099;-71
2023/01/20 01:38:47;;;;;;;15.60;5.50;;;;;;;7.67;90.32;100200.11;107396;1244;62859;-71
2023/01/20 01:41:26;;;;;;;17.90;5.00;;;;;;;7.68;91.30;100204.40;107388;1245;60248;-71
2023/01/20 01:44:10;;;;;;;14.50;5.30;;;;;;;7.69;92.86;100201.89;107400;1244;73671;-71
2023/01/20 01:46:41;;;;;;;15.30;4.70;;;;;;;7.70;92.95;100206.33;107315;1245;61241;-70
2023/01/20 01:49:28;;;;;;;21.10;5.40;;;;;;;7.72;94.59;100211.98;107165;1247;59828;-72
2023/01/20 01:52:08;;;;;;;12.30;4.80;;;;;;;7.69;94.00;100216.46;107372;1246;73754;-70
2023/01/20 01:54:44;;;;;;;17.90;5.30;;;;;;;7.69;95.74;100212.82;107394;1244;58965;-71
2023/01/20 01:57:13;;;;;;;15.10;5.30;;;;;;;7.68;96.58;100207.54;107374;1245;59013;-69
2023/01/20 01:59:43;;;;;;;17.70;5.40;;;;;;;7.67;97.18;100203.94;107338;1256;62127;-71
2023/01/20 02:02:11;;;;;;;19.90;5.10;;;;;;;7.63;96.32;100201.09;107320;1244;72550;-70
2023/01/20 02:04:42;;;;;;;21.50;5.40;;;;;;;7.62;97.60;100206.73;107309;1246;70915;-70
2023/01/20 02:07:15;;;;;;;12.20;4.90;;;;;;;7.60;97.74;100214.36;107287;1245;63028;-70
2023/01/20 02:09:44;;;;;;;16.70;5.30;;;;;;;7.55;97.30;100214.17;107317;1244;62104;-69
2023/01/20 02:12:18;;;;;;;12.90;4.80;;;;;;;7.49;96.49;100210.02;107328;1245;58998;-70
2023/01/20 02:14:57;;;;;;;18.80;5.40;;;;;;;7.41;95.39;100211.27;107304;1245;63331;-70
2023/01/20 02:18:00;;;;;;;16.80;5.60;;;;;;;7.32;95.33;100213.80;107322;1252;71346;-70
2023/01/20 02:21:18;;;;;;;16.10;5.80;;;;;;;7.20;93.97;100217.33;107356;1255;70446;-69
2023/01/20 02:24:11;;;;;;;11.70;4.40;;;;;;;7.07;93.06;100215.44;107311;1245;74047;-69
2023/01/20 02:27:10;;;;;;;;;;;;;;;6.98;93.21;100207.21;107157;1245;59033;-70
2023/01/20 02:30:33;;;;;;;19.10;4.70;;;;;;;6.90;93.34;100207.69;107279;1255;60607;-74
2023/01/20 02:33:14;;;;;;;14.00;4.60;;;;;;;6.87;93.92;100209.46;107239;1246;64015;-70
2023/01/20 02:35:55;;;;;;;16.80;5.40;;;;;;;6.85;94.19;100200.40;107420;1245;61196;-73
2023/01/20 02:38:43;;;;;;;14.50;5.30;;;;;;;6.84;93.49;100193.52;107529;1244;59204;-72
2023/01/20 02:41:42;;;;;;;16.00;5.10;;;;;;;6.84;93.00;100186.64;107302;1251;73491;-70
2023/01/20 02:44:32;;;;;;;13.60;5.10;;;;;;;6.80;92.57;100182.94;107308;1245;58940;-71
2023/01/20 02:47:51;;;;;;;14.80;4.60;;;;;;;6.78;92.20;100193.79;107373;1244;61070;-72
2023/01/20 02:50:42;;;;;;;13.70;5.00;;;;;;;6.74;92.83;100204.57;107191;1245;72888;-70
2023/01/20 02:53:13;;;;;;;21.40;6.90;;;;;;;6.72;93.07;100209.20;107367;1252;61449;-71
2023/01/20 02:55:52;;;;;;;19.90;6.10;;;;;;;6.68;92.88;100203.07;107335;1256;59219;-71
2023/01/20 02:58:32;;;;;;;17.80;6.10;;;;;;;6.62;92.49;100195.81;107201;1244;74211;-71
2023/01/20 03:01:11;;;;;;;16.90;5.60;;;;;;;6.59;93.27;100200.20;107328;1245;59158;-71
2023/01/20 03:03:45;;;;;;;14.40;5.30;;;;;;;6.55;93.77;100198.05;107354;1245;60532;-72
2023/01/20 03:06:21;;;;;;;16.20;5.50;;;;;;;6.53;94.33;100194.50;107359;1244;63535;-71
2023/01/20 03:08:52;;;;;;;19.00;6.00;;;;;;;6.55;95.15;100195.61;107444;1245;60854;-72
2023/01/20 03:11:21;;;;;;;24.00;6.60;;;;;;;6.57;95.96;100199.60;107455;1256;68756;-71
2023/01/20 03:14:00;;;;;;;16.80;5.60;;;;;;;6.60;96.31;100203.95;107223;1252;63433;-71
2023/01/20 03:16:29;;;;;;;17.90;5.60;;;;;;;6.71;97.97;100200.97;107519;1244;61158;-72
2023/01/20 03:18:59;;;;;;;20.30;5.50;;;;;;;6.79;99.87;100193.36;107503;1245;58762;-71
2023/01/20 03:21:28;;;;;;;16.70;4.50;;;;;;;6.82;99.68;100194.74;107285;1248;62124;-73
2023/01/20 03:24:02;;;;;;;13.70;5.30;;;;;;;6.90;99.00;100200.10;107051;1255;61660;-74
2023/01/20 03:26:32;;;;;;;17.40;5.70;;;;;;;6.96;99.49;100203.02;107191;1245;70327;-70
2023/01/20 03:29:08;;;;;;;16.50;5.30;;;;;;;6.99;99.59;100203.52;107180;1245;63562;-74
2023/01/20 03:31:47;;;;;;;13.60;5.60;;;;;;;7.03;99.74;100207.05;107147;1247;62809;-73
2023/01/20 03:34:20;;;;;;;13.70;5.00;;;;;;;7.04;99.05;100204.92;107110;1245;61589;-72
2023/01/20 03:36:52;;;;;;;16.90;5.40;;;;;;;7.04;97.92;100200.75;107098;1252;73889;-71
2023/01/20 03:39:23;;;;;;;18.10;5.40;;;;;;;7.05;98.40;100208.14;106862;1248;62258;-72
2023/01/20 03:42:24;;;;;;;16.10;4.70;;;;;;;7.06;98.58;100213.94;107043;1245;59284;-72
2023/01/20 03:45:07;;;;;;;15.40;4.50;;;;;;;7.08;98.42;100209.30;107278;1245;73820;-72
2023/01/20 03:47:44;;;;;;;15.00;5.50;;;;;;;7.12;99.16;100203.69;107295;1252;63075;-70
2023/01/20 03:50:49;;;;;;;17.60;5.10;;;;;;;7.16;99.72;100203.04;107338;1246;61177;-70
2023/01/20 03:53:40;;;;;;;14.90;5.10;;;;;;;7.21;99.80;100203.61;107167;1253;73931;-71
2023/01/20 03:56:20;;;;;;;12.50;4.80;;;;;;;7.23;98.74;100207.98;107303;1245;71984;-71
2023/01/20 03:58:53;;;;;;;11.70;5.50;;;;;;;7.24;98.24;100210.87;107368;1246;60230;-71
2023/01/20 04:01:30;;;;;;;15.70;5.30;;;;;;;7.25;97.80;100211.80;107268;1245;73807;-71
2023/01/20 04:04:02;;;;;;;14.10;5.80;;;;;;;7.25;96.98;100208.15;107213;1245;62483;-71
2023/01/20 04:06:33;;;;;;;15.60;5.10;;;;;;;7.27;97.31;100211.34;107348;1244;61458;-69
2023/01/20 04:09:11;;;;;;;17.30;5.20;;;;;;;7.29;97.32;100218.13;107095;1256;74188;-71
2023/01/20 04:11:40;;;;;;;17.20;6.40;;;;;;;7.30;97.09;100215.31;107403;1244;61623;-70
2023/01/20 04:14:10;;;;;;;18.90;6.50;;;;;;;7.30;96.51;100217.70;107197;1256;59205;-70
2023/01/20 04:16:39;;;;;;;19.50;5.90;;;;;;;7.29;95.88;100216.94;107201;1244;73748;-70
2023/01/20 04:19:07;;;;;;;18.90;6.40;;;;;;;7.26;95.64;100209.33;107180;1248;62563;-70
2023/01/20 04:22:17;;;;;;;15.00;6.50;;;;;;;7.23;95.48;100211.63;107254;1245;60663;-71
2023/01/20 04:25:07;;;;;;;10.30;4.70;;;;;;;7.22;96.76;100217.96;107070;1252;62784;-71
2023/01/20 04:27:36;;;;;;;12.80;5.20;;;;;;;7.24;97.77;100220.58;107230;1254;72083;-71
2023/01/20 04:30:06;;;;;;;16.40;6.00;;;;;;;7.25;97.04;100221.02;107293;1245;70003;-72
2023/01/20 04:32:35;;;;;;;17.00;5.30;;;;;;;7.27;96.89;100218.31;107218;1246;63649;-72
2023/01/20 04:35:04;;;;;;;15.20;4.90;;;;;;;7.29;97.10;100224.87;107296;1245;59001;-70
2023/01/20 04:37:33;;;;;;;12.30;4.80;;;;;;;7.34;97.41;100226.65;107594;1245;59218;-70
2023/01/20 04:40:03;;;;;;;19.40;6.40;;;;;;;7.38;96.86;100222.40;107685;1244;73109;-71
2023/01/20 04:42:32;;;;;;;15.10;5.60;;;;;;;7.40;96.30;100216.84;107640;1255;72793;-71
2023/01/20 04:45:03;;;;;;;14.80;5.00;;;;;;;7.43;95.80;100222.21;107578;1246;70369;-71
2023/01/20 04:47:32;;;;;;;13.80;6.20;;;;;;;7.46;95.98;100229.16;107456;1246;75287;-71
2023/01/20 04:50:01;;;;;;;17.60;6.30;;;;;;;7.50;97.10;100241.89;107551;1246;59046;-73
2023/01/20 04:52:30;;;;;;;16.00;6.10;;;;;;;7.56;97.25;100245.30;107492;1245;58915;-71
2023/01/20 04:54:59;;;;;;;24.80;6.60;;;;;;;7.60;97.34;100245.86;107191;1244;63474;-69
2023/01/20 04:57:28;;;;;;;17.40;9.00;;;;;;;7.65;97.36;100248.64;107267;1245;62226;-72
2023/01/20 04:59:57;;;;;;;16.70;7.30;;;;;;;7.66;96.74;100243.36;107280;1245;70385;-72
2023/01/20 05:02:26;;;;;;;18.00;6.20;;;;;;;7.69;97.17;100233.80;107356;1245;74256;-72
2023/01/20 05:04:55;;;;;;;17.00;6.90;;;;;;;7.71;96.14;100231.62;107261;1253;63508;-72
2023/01/20 05:07:24;;;;;;;18.60;6.20;;;;;;;7.75;97.93;100230.31;107391;1256;57452;-70
2023/01/20 05:09:53;;;;;;;15.00;5.60;;;;;;;7.77;97.96;100224.98;107350;1256;62202;-72
2023/01/20 05:12:22;;;;;;;20.30;7.20;;;;;;;7.80;97.57;100229.98;107386;1246;61977;-71
2023/01/20 05:14:51;;;;;;;16.80;6.70;;;;;;;7.86;98.14;100235.63;107220;1244;59961;-72
2023/01/20 05:17:20;;;;;;;19.40;6.70;;;;;;;7.87;97.59;100233.30;107389;1245;62456;-71
2023/01/20 05:19:50;;;;;;;25.00;10.90;;;;;;;7.88;97.70;100224.20;107136;1243;454223;-73
2023/01/20 05:22:18;;;;;;;18.70;7.00;;;;;;;7.88;97.12;100220.23;107861;1245;61110;-73
2023/01/20 05:24:47;;;;;;;20.00;7.10;;;;;;;7.85;96.25;100215.58;108089;1243;63524;-75
2023/01/20 05:27:16;;;;;;;12.10;5.80;;;;;;;7.84;96.44;100215.31;107497;1256;62501;-73
2023/01/20 05:29:45;;;;;;;19.90;7.10;;;;;;;7.84;96.29;100204.17;107577;1248;59991;-73
2023/01/20 05:32:14;;;;;;;14.60;5.80;;;;;;;7.85;96.22;100205.34;107469;1245;72047;-74
2023/01/20 05:34:42;;;;;;;17.40;6.20;;;;;;;7.86;96.79;100209.79;107252;1248;63938;-72
2023/01/20 05:37:11;;;;;;;19.80;6.70;;;;;;;7.87;96.71;100215.02;107232;1249;59124;-72
2023/01/20 05:39:40;;;;;;;16.80;7.40;;;;;;;7.90;96.83;100213.83;107526;1248;62904;-71
2023/01/20 05:42:09;;;;;;;15.30;7.00;;;;;;;7.88;96.43;100212.18;107327;1245;61577;-70
2023/01/20 05:44:38;;;;;;;17.80;6.90;;;;;;;7.89;96.66;100212.83;107571;1246;68954;-74
2023/01/20 05:47:07;;;;;;;17.40;7.70;;;;;;;7.92;96.97;100208.33;107221;1244;73536;-75
2023/01/20 05:49:35;;;;;;;16.30;6.80;;;;;;;7.92;97.46;100198.80;107217;1243;58861;-72
2023/01/20 05:52:04;;;;;;;16.70;7.00;;;;;;;7.94;97.21;100206.80;107309;1246;58958;-74
2023/01/20 05:54:33;;;;;;;16.60;7.30;;;;;;;7.95;97.27;100216.73;107541;1246;62200;-71
2023/01/20 05:57:04;;;;;;;17.00;6.10;;;;;;;7.98;97.77;100226.09;107352;1244;69656;-73
2023/01/20 05:59:33;;;;;;;14.50;5.80;;;;;;;8.04;97.92;100229.52;107315;1248;70903;-71
2023/01/20 06:02:02;;;;;;;11.60;5.40;;;;;;;8.09;97.81;100226.37;107720;1244;74553;-73
2023/01/20 06:04:31;;;;;;;18.20;5.90;;;;;;;8.14;97.99;100229.83;107740;1248;59067;-78
2023/01/20 06:06:59;;;;;;;16.00;5.70;;;;;;;8.20;97.78;100236.52;108907;1242;60732;-81
2023/01/20 06:09:28;;;;;;;16.30;5.30;;;;;;;8.28;97.55;100233.89;108980;1242;62712;-79
2023/01/20 06:11:57;;;;;;;13.90;5.00;;;;;;;8.40;97.40;100239.52;109235;1245;61206;-79
2023/01/20 06:14:26;;;;;;;14.80;5.20;;;;;;;8.48;97.02;100236.46;109039;1244;69630;-80
2023/01/20 06:16:54;;;;;;;15.00;4.60;;;;;;;8.59;96.63;100235.58;108668;1244;73367;-80
2023/01/20 06:19:25;;;;;;;14.70;5.10;;;;;;;8.67;96.25;100234.62;108843;1244;62817;-79
2023/01/20 06:21:54;;;;;;;11.50;4.80;;;;;;;8.77;95.73;100242.77;108715;1244;61076;-78
2023/01/20 06:24:22;;;;;;;10.90;4.10;;;;;;;8.87;95.13;100240.31;108926;1244;73227;-81
2023/01/20 06:26:51;;;;;;;12.80;4.50;;;;;;;8.94;94.83;100242.37;108821;1245;62810;-78
2023/01/20 06:29:21;;;;;;;17.00;5.10;;;;;;;9.02;94.55;100240.56;108947;1245;60037;-78
2023/01/20 06:31:49;;;;;;;10.80;3.70;;;;;;;9.12;93.99;100242.45;107582;1245;72008;-74
2023/01/20 06:34:18;;;;;;;13.00;4.50;;;;;;;9.20;93.28;100234.60;107105;1245;58794;-73
2023/01/20 06:36:47;;;;;;;9.90;4.10;;;;;;;9.23;92.87;100238.52;107022;1245;59156;-72
2023/01/20 06:39:16;;;;;;;13.90;5.20;;;;;;;9.30;92.42;100244.08;107073;1252;72642;-72
2023/01/20 06:41:45;;;;;;;14.20;4.60;;;;;;;9.30;91.99;100246.36;107091;1245;72561;-71
2023/01/20 06:44:14;;;;;;;13.40;4.40;;;;;;;9.29;91.79;100250.79;107363;1246;71310;-73
2023/01/20 06:46:43;;;;;;;11.50;4.60;;;;;;;9.18;91.76;100245.34;107312;1245;64640;-72
2023/01/20 06:49:15;;;;;;;23.40;5.40;;;;;;;9.13;92.05;100244.82;107226;1246;58882;-74
2023/01/20 06:51:46;;;;;;;70.60;11.90;;;;;;;9.11;92.27;100245.50;107218;1253;59111;-73
2023/01/20 06:54:15;;;;;;;13.00;5.10;;;;;;;9.06;92.49;100250.92;107055;1245;63533;-73
2023/01/20 06:56:45;;;;;;;20.80;5.90;;;;;;;9.01;93.00;100259.98;107239;1253;62266;-73
2023/01/20 06:59:13;;;;;;;18.50;5.60;;;;;;;8.99;92.86;100261.14;107180;1256;70827;-73
2023/01/20 07:01:42;;;;;;;13.40;5.80;;;;;;;8.96;92.92;100262.20;107186;1246;63014;-75
2023/01/20 07:04:13;;;;;;;17.30;6.70;;;;;;;8.95;93.23;100259.33;107043;1255;59014;-75
2023/01/20 07:06:42;;;;;;;12.60;5.80;;;;;;;8.93;92.94;100258.96;107051;1254;61531;-73
2023/01/20 07:09:12;;;;;;;17.50;6.40;;;;;;;8.85;93.36;100252.23;107222;1247;72729;-73
2023/01/20 07:11:41;;;;;;;14.10;5.30;;;;;;;8.91;93.92;100249.77;107045;1247;70997;-73
2023/01/20 07:14:10;;;;;;;9.80;5.30;;;;;;;8.96;93.59;100242.05;107229;1253;70936;-74
2023/01/20 07:16:39;;;;;;;13.80;5.50;;;;;;;9.03;93.56;100238.27;107074;1252;74143;-73
2023/01/20 07:19:08;;;;;;;14.10;5.40;;;;;;;9.10;93.29;100236.19;107391;1246;61393;-74
2023/01/20 07:21:37;;;;;;;10.40;5.20;;;;;;;9.20;92.61;100238.89;107241;1247;61550;-75
2023/01/20 07:24:08;;;;;;;14.10;5.70;;;;;;;9.23;92.45;100245.97;107273;1246;62577;-73
2023/01/20 07:26:37;;;;;;;12.60;5.20;;;;;;;9.25;92.16;100248.23;107225;1245;63057;-75
2023/01/20 07:29:06;;;;;;;19.50;5.60;;;;;;;9.26;91.77;100255.33;107323;1253;70325;-75
2023/01/20 07:31:36;;;;;;;15.90;6.20;;;;;;;9.31;91.98;100260.49;107278;1246;62956;-73
2023/01/20 07:34:05;;;;;;;15.80;5.80;;;;;;;9.39;91.28;100256.79;107302;1243;62056;-73
2023/01/20 07:36:34;;;;;;;15.30;6.70;;;;;;;9.33;91.46;100260.20;107135;1246;61489;-73
2023/01/20 07:39:03;;;;;;;13.90;6.40;;;;;;;9.28;91.88;100260.93;107209;1251;73995;-73
2023/01/20 07:41:32;;;;;;;17.20;6.60;;;;;;;9.30;91.70;100268.71;107450;1245;72371;-73
2023/01/20 07:44:02;;;;;;;12.40;5.70;;;;;;;9.38;91.41;100272.52;107440;1245;61124;-72
2023/01/20 07:46:31;;;;;;;16.90;6.30;;;;;;;9.50;91.24;100273.51;107157;1248;73862;-75
2023/01/20 07:49:00;;;;;;;14.10;6.20;;;;;;;9.55;90.95;100275.95;107140;1256;62459;-75
2023/01/20 07:51:29;;;;;;;16.60;6.40;;;;;;;9.62;90.43;100274.90;107235;1244;60177;-75
2023/01/20 07:53:58;;;;;;;18.90;7.30;;;;;;;9.67;90.22;100279.71;107322;1244;73423;-74
2023/01/20 07:56:28;;;;;;;12.20;6.50;;;;;;;9.77;90.07;100276.15;107265;1246;71773;-74
2023/01/20 07:58:57;;;;;;;40.30;9.40;;;;;;;9.86;89.83;100277.40;107314;1251;60374;-73
2023/01/20 08:01:29;;;;;;;18.40;5.90;;;;;;;9.99;89.29;100281.47;107303;1253;63236;-74
2023/01/20 08:03:59;;;;;;;32.90;7.80;;;;;;;10.09;88.78;100285.73;107338;1245;57481;-75
2023/01/20 08:06:29;;;;;;;12.90;6.30;;;;;;;10.12;88.26;100278.70;107499;1252;57441;-75
2023/01/20 08:09:01;;;;;;;17.40;7.00;;;;;;;10.28;87.28;100302.27;107203;1244;72613;-74
2023/01/20 08:11:33;;;;;;;14.60;6.70;;;;;;;10.34;87.05;100307.86;107497;1253;71963;-74
2023/01/20 08:14:03;;;;;;;26.70;8.10;;;;;;;10.40;86.72;100302.84;107492;1246;71834;-75
2023/01/20 08:16:32;;;;;;;24.90;8.60;;;;;;;10.52;86.89;100301.90;107418;1248;65205;-74
2023/01/20 08:19:01;;;;;;;15.20;7.80;;;;;;;10.59;86.47;100304.52;107259;1253;61460;-74
2023/01/20 08:21:31;;;;;;;22.20;8.00;;;;;;;10.59;85.66;100310.38;107408;1252;61011;-74
2023/01/20 08:24:05;;;;;;;41.80;13.60;;;;;;;10.66;85.53;100311.77;107234;1248;64517;-74
2023/01/20 08:26:34;;;;;;;26.40;18.50;;;;;;;10.72;85.58;100313.21;107323;1256;61620;-73
2023/01/20 08:29:07;;;;;;;20.00;8.60;;;;;;;10.77;85.19;100312.86;107482;1256;59177;-75
2023/01/20 08:31:37;;;;;;;19.50;8.90;;;;;;;10.83;84.72;100308.54;107274;1255;63285;-75
2023/01/20 08:34:06;;;;;;;17.40;7.80;;;;;;;10.99;84.64;100312.11;107523;1245;59391;-74
2023/01/20 08:36:38;;;;;;;18.50;8.20;;;;;;;11.06;83.70;100311.34;107462;1244;58995;-74
2023/01/20 08:39:13;;;;;;;18.60;8.50;;;;;;;11.15;82.64;100311.54;107342;1246;62903;-74
2023/01/20 08:41:43;;;;;;;16.20;7.70;;;;;;;11.23;82.19;100306.85;107293;1256;61217;-73
2023/01/20 08:44:14;;;;;;;18.20;7.50;;;;;;;11.34;82.04;100307.91;107483;1256;59252;-73
2023/01/20 08:46:44;;;;;;;20.90;9.50;;;;;;;11.41;81.33;100310.11;107370;1256;73717;-75
2023/01/20 08:49:16;;;;;;;16.60;9.00;;;;;;;11.44;81.19;100319.44;107244;1256;61513;-74
2023/01/20 08:51:45;;;;;;;20.90;8.80;;;;;;;11.52;80.99;100322.66;107427;1246;57485;-75
2023/01/20 08:54:14;;;;;;;21.10;8.70;;;;;;;11.61;80.11;100328.13;107529;1245;72989;-73
2023/01/20 08:56:43;;;;;;;21.00;9.50;;;;;;;11.65;79.77;100321.90;107514;1245;61546;-74
2023/01/20 08:59:12;;;;;;;21.40;8.90;;;;;;;11.62;79.49;100312.73;107541;1252;61396;-74
2023/01/20 09:01:42;;;;;;;17.70;9.30;;;;;;;11.62;79.79;100308.73;107294;1256;62456;-74
2023/01/20 09:04:11;;;;;;;22.90;9.00;;;;;;;11.78;79.45;100309.34;107495;1252;58654;-74
2023/01/20 09:06:48;;;;;;;19.70;8.70;;;;;;;11.82;78.95;100305.33;107588;1256;58280;-73
2023/01/20 09:09:21;;;;;;;16.80;8.90;;;;;;;11.96;78.50;100307.80;107744;1246;73444;-74
2023/01/20 09:11:50;;;;;;;21.70;8.10;;;;;;;11.89;78.30;100307.50;107619;1251;72545;-73
2023/01/20 09:14:23;;;;;;;11.30;6.50;;;;;;;11.88;78.40;100306.91;107608;1244;68580;-74
2023/01/20 09:16:52;;;;;;;18.10;7.60;;;;;;;11.78;78.82;100307.41;107554;1251;73207;-74
2023/01/20 09:19:21;;;;;;;14.60;6.90;;;;;;;11.68;79.28;100305.42;107321;1247;63247;-74
2023/01/20 09:21:50;;;;;;;15.80;6.30;;;;;;;11.74;79.45;100309.84;107274;1244;61525;-76
2023/01/20 09:24:20;;;;;;;19.00;7.90;;;;;;;11.73;79.12;100303.80;107458;1244;74243;-75
2023/01/20 09:26:49;;;;;;;16.00;7.70;;;;;;;11.73;79.29;100304.46;107318;1246;71145;-75
2023/01/20 09:29:19;;;;;;;24.20;8.00;;;;;;;11.77;79.27;100296.95;107566;1244;69349;-75
2023/01/20 09:31:49;;;;;;;65.70;11.80;;;;;;;11.90;79.23;100295.35;107263;1248;64605;-75
2023/01/20 09:34:23;;;;;;;18.60;7.50;;;;;;;11.99;78.40;100297.98;107506;1246;58401;-74
2023/01/20 09:43:52;;;;;;;128.50;18.20;;;;;;;12.02;78.30;100298.55;107254;1245;59040;-72
2023/01/20 09:47:18;;;;;;;24.40;8.80;;;;;;;12.38;77.64;100278.70;107479;1247;69590;-74
2023/01/20 09:53:31;;;;;;;17.40;7.10;;;;;;;12.55;76.66;100266.05;107376;1245;59048;-74
2023/01/20 09:56:15;;;;;;;15.90;7.50;;;;;;;12.72;76.25;100258.29;107251;1245;59141;-74
2023/01/20 09:58:56;;;;;;;22.40;8.20;;;;;;;12.82;75.75;100251.08;107329;1255;72736;-74
2023/01/20 10:01:44;;;;;;;26.00;10.50;;;;;;;13.00;75.52;100253.02;107504;1244;72066;-75
2023/01/20 10:04:57;;;;;;;17.60;7.50;;;;;;;13.02;74.68;100257.52;107382;1245;70852;-74
2023/01/20 10:07:43;;;;;;;17.20;8.60;;;;;;;13.10;74.31;100251.79;107450;1244;73334;-76
2023/01/20 10:10:24;;;;;;;15.50;7.40;;;;;;;13.20;73.85;100247.90;107435;1244;58999;-74
2023/01/20 10:13:25;;;;;;;14.00;7.50;;;;;;;13.06;73.59;100247.17;107342;1245;61240;-74
2023/01/20 10:15:56;;;;;;;16.70;7.50;;;;;;;12.98;73.78;100246.64;107131;1244;62679;-75
2023/01/20 10:19:11;;;;;;;20.20;8.70;;;;;;;12.96;73.70;100242.14;107300;1243;72152;-73
2023/01/20 10:21:52;;;;;;;16.60;8.20;;;;;;;13.00;73.75;100242.88;107027;1247;61239;-73
2023/01/20 10:24:40;;;;;;;16.80;7.50;;;;;;;13.05;73.58;100238.34;107405;1253;63169;-75
2023/01/20 10:27:09;;;;;;;19.20;8.30;;;;;;;13.21;73.10;100240.23;107277;1248;60221;-74
2023/01/20 10:29:53;;;;;;;14.80;8.00;;;;;;;13.26;72.34;100237.73;107422;1244;61481;-75
2023/01/20 10:32:37;;;;;;;18.90;7.60;;;;;;;13.38;72.10;100235.97;107340;1244;75028;-75
2023/01/20 10:35:23;;;;;;;20.90;9.50;;;;;;;13.44;71.96;100227.71;107242;1244;71536;-74
2023/01/20 10:37:54;;;;;;;34.30;9.20;;;;;;;13.50;71.77;100228.13;107137;1256;70193;-75
2023/01/20 10:41:14;;;;;;;16.40;7.50;;;;;;;13.66;71.34;100226.73;107156;1248;63702;-74
2023/01/20 10:43:46;;;;;;;19.80;7.90;;;;;;;13.64;70.73;100217.40;106729;1254;59570;-75
2023/01/20 10:46:41;;;;;;;20.20;7.70;;;;;;;13.99;70.36;100210.60;107276;1247;60212;-75
2023/01/20 10:49:51;;;;;;;16.70;8.00;;;;;;;14.37;68.44;100202.67;107230;1251;64779;-75
2023/01/20 10:53:01;;;;;;;18.30;7.30;;;;;;;14.61;67.27;100195.60;107268;1248;71050;-76
2023/01/20 10:55:40;;;;;;;24.50;8.80;;;;;;;15.01;65.70;100195.00;107300;1245;70536;-74
2023/01/20 10:58:44;;;;;;;18.20;7.40;;;;;;;15.37;64.48;100180.84;107263;1248;74225;-76
2023/01/20 11:01:17;;;;;;;33.80;8.20;;;;;;;15.55;63.81;100180.95;107139;1247;61583;-74
2023/01/20 11:03:48;;;;;;;17.00;7.70;;;;;;;15.73;63.21;100180.21;107253;1250;59000;-75
2023/01/20 11:06:26;;;;;;;31.30;8.40;;;;;;;15.84;62.41;100179.27;107507;1245;72779;-75
2023/01/20 11:08:55;;;;;;;26.30;8.80;;;;;;;15.64;62.12;100179.91;107322;1248;73577;-75
2023/01/20 11:11:25;;;;;;;23.70;7.90;;;;;;;16.02;62.18;100174.56;107108;1256;70224;-74
2023/01/20 11:13:56;;;;;;;18.70;6.90;;;;;;;16.14;60.98;100177.40;107202;1254;63779;-75
2023/01/20 11:16:30;;;;;;;21.40;6.90;;;;;;;15.62;62.09;100179.17;107262;1248;59426;-75
2023/01/20 11:19:06;;;;;;;21.40;7.20;;;;;;;15.17;63.46;100182.14;107342;1245;58666;-75
2023/01/20 11:21:36;;;;;;;14.10;6.20;;;;;;;15.06;64.09;100179.56;107471;1255;74147;-74
2023/01/20 11:24:34;;;;;;;12.40;6.40;;;;;;;15.22;63.67;100178.86;107490;1246;60708;-75
2023/01/20 11:27:10;;;;;;;27.50;8.70;;;;;;;15.00;64.38;100178.65;107397;1256;59488;-75
2023/01/20 11:29:45;;;;;;;21.90;8.60;;;;;;;14.92;65.33;100179.98;107374;1246;73789;-75
2023/01/20 11:32:36;;;;;;;19.10;9.60;;;;;;;15.04;65.53;100178.70;107261;1248;58756;-74
2023/01/20 11:35:25;;;;;;;32.20;9.60;;;;;;;15.28;65.46;100170.91;107127;1244;59098;-75
2023/01/20 11:37:53;;;;;;;26.10;9.40;;;;;;;15.53;64.68;100164.13;106994;1248;74389;-74
2023/01/20 11:40:26;;;;;;;21.50;9.50;;;;;;;15.71;63.97;100162.53;107247;1245;62365;-74
2023/01/20 11:42:55;;;;;;;;;;;;;;;16.02;63.08;100166.55;107502;1253;59172;-75
2023/01/20 11:45:34;;;;;;;24.20;9.20;;;;;;;15.85;62.84;100154.21;107447;1246;73077;-74
2023/01/20 11:48:12;;;;;;;17.80;8.50;;;;;;;15.92;62.79;100158.42;107468;1245;61608;-78
2023/01/20 11:51:00;;;;;;;26.40;8.80;;;;;;;15.74;62.38;100156.44;107695;1247;61520;-76
2023/01/20 11:53:31;;;;;;;17.90;7.80;;;;;;;15.64;62.48;100155.67;107195;1245;73805;-77
2023/01/20 11:56:25;;;;;;;21.90;8.60;;;;;;;15.75;62.59;100151.20;107430;1245;71770;-76
2023/01/20 11:59:02;;;;;;;;;;;;;;;15.70;62.34;100147.05;107118;1249;69299;-76